createdAt,value
2023-02-02T00:01:33.691Z,2.47
2023-02-02T00:04:00.445Z,3.00
2023-02-02T00:06:29.181Z,2.60
2023-02-02T00:08:58.026Z,2.70
2023-02-02T00:11:25.369Z,3.17
2023-02-02T00:13:52.145Z,3.53
2023-02-02T00:16:31.007Z,3.00
2023-02-02T00:19:03.852Z,3.20
2023-02-02T00:21:30.696Z,2.80
2023-02-02T00:23:57.355Z,3.33
2023-02-02T00:26:24.481Z,3.37
2023-02-02T00:28:51.168Z,2.70
2023-02-02T00:31:17.858Z,2.80
2023-02-02T00:33:49.268Z,2.70
2023-02-02T00:36:17.279Z,2.83
2023-02-02T00:38:44.364Z,3.70
2023-02-02T00:41:11.065Z,2.60
2023-02-02T00:43:37.881Z,3.03
2023-02-02T00:46:04.813Z,2.83
2023-02-02T00:48:31.646Z,3.10
2023-02-02T00:50:58.352Z,3.37
2023-02-02T00:53:25.047Z,3.30
2023-02-02T00:55:51.757Z,2.90
2023-02-02T00:58:18.383Z,2.47
2023-02-02T01:00:45.124Z,2.80
2023-02-02T01:03:13.328Z,2.90
2023-02-02T01:05:40.394Z,2.93
2023-02-02T01:08:07.210Z,2.93
2023-02-02T01:10:34.582Z,2.63
2023-02-02T01:13:01.515Z,2.83
2023-02-02T01:15:30.324Z,2.73
2023-02-02T01:17:57.474Z,2.47
2023-02-02T01:20:24.471Z,2.83
2023-02-02T01:22:51.838Z,2.93
2023-02-02T01:25:18.558Z,3.50
2023-02-02T01:27:45.171Z,3.13
2023-02-02T01:30:12.433Z,2.90
2023-02-02T01:32:39.115Z,3.07
2023-02-02T01:35:06.212Z,2.30
2023-02-02T01:37:32.865Z,2.50
2023-02-02T01:39:59.720Z,2.70
2023-02-02T01:42:26.444Z,3.53
2023-02-02T01:44:56.009Z,3.43
2023-02-02T01:47:27.104Z,3.33
2023-02-02T01:49:55.415Z,3.63
2023-02-02T01:52:25.975Z,2.70
2023-02-02T01:55:08.248Z,2.97
2023-02-02T01:57:42.139Z,3.07
2023-02-02T02:00:12.494Z,3.40
2023-02-02T02:02:41.939Z,3.10
2023-02-02T02:05:09.843Z,2.60
2023-02-02T02:07:37.314Z,2.70
2023-02-02T02:10:04.587Z,3.57
2023-02-02T02:12:31.309Z,3.27
2023-02-02T02:15:16.705Z,3.17
2023-02-02T02:18:12.266Z,2.90
2023-02-02T02:21:17.343Z,3.53
2023-02-02T02:24:11.962Z,2.90
2023-02-02T02:26:51.064Z,2.97
2023-02-02T02:29:47.305Z,3.37
2023-02-02T02:32:46.341Z,3.50
2023-02-02T02:35:25.412Z,4.30
2023-02-02T02:38:07.863Z,3.27
2023-02-02T02:41:00.666Z,2.97
2023-02-02T02:43:50.495Z,3.13
2023-02-02T02:46:17.415Z,2.93
2023-02-02T02:48:47.078Z,3.30
2023-02-02T02:51:38.571Z,3.07
2023-02-02T02:54:05.561Z,2.93
2023-02-02T02:56:41.858Z,3.27
2023-02-02T02:59:28.589Z,3.07
2023-02-02T03:02:03.680Z,2.87
2023-02-02T03:04:44.822Z,2.47
2023-02-02T03:07:23.017Z,2.93
2023-02-02T03:09:51.439Z,2.83
2023-02-02T03:12:18.472Z,3.00
2023-02-02T03:14:45.123Z,3.13
2023-02-02T03:17:11.906Z,3.33
2023-02-02T03:19:38.640Z,3.33
2023-02-02T03:22:05.264Z,3.13
2023-02-02T03:24:31.931Z,4.10
2023-02-02T03:26:58.696Z,4.40
2023-02-02T03:29:25.518Z,2.90
2023-02-02T03:31:52.292Z,3.23
2023-02-02T03:34:18.935Z,3.17
2023-02-02T03:36:45.529Z,4.00
2023-02-02T03:39:12.198Z,3.73
2023-02-02T03:41:38.830Z,3.80
2023-02-02T03:44:05.534Z,3.27
2023-02-02T03:46:32.146Z,3.87
2023-02-02T03:48:58.775Z,3.53
2023-02-02T03:51:25.494Z,3.33
2023-02-02T03:53:52.137Z,3.60
2023-02-02T03:56:19.518Z,3.53
2023-02-02T03:58:47.207Z,3.40
2023-02-02T04:01:14.881Z,3.50
2023-02-02T04:03:42.137Z,4.27
2023-02-02T04:06:09.281Z,3.83
2023-02-02T04:08:36.264Z,3.00
2023-02-02T04:11:06.071Z,3.87
2023-02-02T04:13:32.738Z,3.70
2023-02-02T04:16:00.615Z,3.57
2023-02-02T04:18:28.662Z,3.53
2023-02-02T04:20:59.429Z,3.77
2023-02-02T04:23:26.409Z,2.63
2023-02-02T04:25:53.462Z,3.50
2023-02-02T04:28:21.088Z,4.20
2023-02-02T04:30:47.830Z,3.97
2023-02-02T04:33:14.482Z,2.90
2023-02-02T04:35:42.827Z,3.07
2023-02-02T04:38:10.125Z,2.70
2023-02-02T04:40:41.593Z,2.87
2023-02-02T04:43:08.344Z,2.87
2023-02-02T04:45:35.282Z,2.20
2023-02-02T04:48:02.387Z,2.00
2023-02-02T04:50:29.636Z,2.33
2023-02-02T04:52:56.358Z,1.80
2023-02-02T04:55:23.467Z,1.60
2023-02-02T04:57:50.438Z,1.53
2023-02-02T05:00:17.431Z,1.63
2023-02-02T05:02:44.126Z,1.83
2023-02-02T05:05:13.772Z,1.53
2023-02-02T05:07:40.744Z,1.60
2023-02-02T05:10:09.938Z,2.00
2023-02-02T05:12:36.608Z,2.07
2023-02-02T05:15:05.498Z,1.90
2023-02-02T05:17:32.590Z,2.17
2023-02-02T05:19:59.243Z,2.77
2023-02-02T05:22:25.950Z,1.63
2023-02-02T05:24:52.712Z,2.00
2023-02-02T05:27:19.586Z,2.33
2023-02-02T05:29:49.896Z,2.97
2023-02-02T05:32:17.126Z,2.10
2023-02-02T05:34:43.816Z,2.10
2023-02-02T05:37:10.475Z,3.07
2023-02-02T05:39:37.195Z,2.83
2023-02-02T05:42:04.071Z,3.37
2023-02-02T05:44:30.718Z,2.37
2023-02-02T05:46:57.372Z,2.83
2023-02-02T05:49:24.158Z,2.93
2023-02-02T05:51:55.472Z,3.10
2023-02-02T05:54:22.173Z,2.70
2023-02-02T05:56:50.837Z,2.77
2023-02-02T05:59:18.677Z,2.73
2023-02-02T06:01:46.868Z,2.40
2023-02-02T06:04:14.192Z,3.10
2023-02-02T06:06:42.172Z,2.67
2023-02-02T06:09:09.109Z,2.83
2023-02-02T06:11:35.743Z,3.27
2023-02-02T06:14:02.737Z,2.50
2023-02-02T06:16:29.430Z,3.50
2023-02-02T06:18:56.317Z,2.53
2023-02-02T06:21:24.730Z,2.20
2023-02-02T06:23:52.046Z,2.80
2023-02-02T06:26:19.407Z,2.50
2023-02-02T06:28:51.668Z,2.53
2023-02-02T06:31:19.722Z,3.47
2023-02-02T06:33:47.881Z,2.30
2023-02-02T06:36:14.692Z,3.07
2023-02-02T06:38:41.469Z,2.70
2023-02-02T06:41:08.159Z,1.73
2023-02-02T06:43:34.874Z,2.43
2023-02-02T06:46:01.690Z,2.07
2023-02-02T06:48:28.275Z,2.60
2023-02-02T06:50:58.470Z,2.40
2023-02-02T06:53:26.623Z,2.37
2023-02-02T06:55:57.815Z,2.73
2023-02-02T06:58:24.469Z,2.27
2023-02-02T07:00:51.182Z,2.63
2023-02-02T07:03:18.968Z,2.50
2023-02-02T07:05:45.596Z,2.83
2023-02-02T07:08:12.250Z,3.00
2023-02-02T07:11:12.981Z,2.37
2023-02-02T07:13:26.143Z,2.30
2023-02-02T07:15:54.633Z,2.13
2023-02-02T07:18:22.601Z,2.23
2023-02-02T07:20:49.273Z,2.57
2023-02-02T07:23:15.948Z,3.00
2023-02-02T07:25:44.000Z,2.10
2023-02-02T07:28:10.725Z,2.63
2023-02-02T07:30:37.454Z,2.33
2023-02-02T07:33:04.166Z,2.00
2023-02-02T07:35:30.988Z,2.57
2023-02-02T07:37:58.231Z,2.57
2023-02-02T07:40:24.887Z,2.17
2023-02-02T07:42:51.583Z,2.90
2023-02-02T07:45:35.869Z,2.43
2023-02-02T07:48:03.180Z,2.37
2023-02-02T07:50:30.985Z,2.57
2023-02-02T07:53:00.223Z,2.30
2023-02-02T07:55:27.390Z,3.13
2023-02-02T07:57:55.522Z,2.10
2023-02-02T08:00:22.979Z,2.40
2023-02-02T08:02:49.894Z,2.73
2023-02-02T08:05:17.062Z,2.53
2023-02-02T08:07:44.766Z,2.70
2023-02-02T08:10:12.026Z,3.10
2023-02-02T08:12:42.109Z,2.27
2023-02-02T08:15:09.397Z,2.20
2023-02-02T08:17:37.404Z,2.60
2023-02-02T08:20:04.443Z,2.40
2023-02-02T08:22:31.527Z,2.10
2023-02-02T08:24:58.196Z,2.20
2023-02-02T08:27:24.918Z,2.17
2023-02-02T08:29:51.572Z,2.10
2023-02-02T08:32:18.225Z,2.20
2023-02-02T08:34:44.879Z,2.40
2023-02-02T08:37:11.579Z,2.40
2023-02-02T08:39:38.287Z,2.10
2023-02-02T08:42:04.937Z,1.90
2023-02-02T08:44:45.317Z,1.87
2023-02-02T08:47:18.232Z,2.17
2023-02-02T08:49:45.189Z,2.10
2023-02-02T08:52:11.979Z,2.70
2023-02-02T08:54:38.671Z,2.57
2023-02-02T08:57:05.290Z,2.67
2023-02-02T08:59:32.003Z,1.90
2023-02-02T09:01:58.649Z,1.87
2023-02-02T09:04:25.362Z,2.27
2023-02-02T09:06:52.056Z,2.00
2023-02-02T09:09:18.749Z,3.07
2023-02-02T09:11:45.521Z,2.10
2023-02-02T09:14:13.841Z,2.47
2023-02-02T09:16:40.950Z,1.73
2023-02-02T09:19:07.711Z,1.90
2023-02-02T09:21:37.391Z,2.50
2023-02-02T09:24:10.437Z,2.53
2023-02-02T09:26:41.871Z,2.20
2023-02-02T09:29:12.430Z,3.03
2023-02-02T09:31:39.661Z,2.43
2023-02-02T09:34:09.056Z,2.87
2023-02-02T09:36:37.305Z,2.00
2023-02-02T09:39:05.984Z,2.10
2023-02-02T09:41:35.639Z,2.57
2023-02-02T09:44:39.930Z,2.00
2023-02-02T09:47:25.382Z,1.73
2023-02-02T09:50:16.573Z,2.03
2023-02-02T09:52:53.183Z,3.70
2023-02-02T09:55:37.990Z,2.10
2023-02-02T09:58:22.696Z,2.30
2023-02-02T10:00:59.314Z,1.93
2023-02-02T10:03:42.859Z,2.53
2023-02-02T10:06:41.063Z,2.77
2023-02-02T10:09:34.130Z,1.90
2023-02-02T10:12:25.797Z,2.20
2023-02-02T10:14:59.728Z,2.00
2023-02-02T10:17:52.657Z,1.90
2023-02-02T10:20:23.641Z,1.60
2023-02-02T10:22:51.365Z,1.63
2023-02-02T10:25:19.346Z,1.90
2023-02-02T10:28:02.871Z,2.27
2023-02-02T10:30:44.372Z,2.50
2023-02-02T10:33:24.087Z,2.27
2023-02-02T10:36:01.306Z,2.63
2023-02-02T10:38:45.402Z,2.00
2023-02-02T10:41:21.203Z,3.03
2023-02-02T10:44:03.075Z,2.23
2023-02-02T10:46:53.285Z,2.20
2023-02-02T10:49:40.550Z,2.17
2023-02-02T10:52:11.092Z,1.83
2023-02-02T10:54:57.329Z,2.00
2023-02-02T10:58:09.646Z,2.93
2023-02-02T11:00:46.283Z,2.17
2023-02-02T11:03:16.210Z,2.37
2023-02-02T11:06:01.544Z,1.80
2023-02-02T11:08:32.950Z,2.63
2023-02-02T11:11:29.647Z,2.80
2023-02-02T11:14:04.258Z,2.03
2023-02-02T11:16:42.798Z,2.37
2023-02-02T11:19:30.515Z,3.60
2023-02-02T11:21:59.853Z,2.33
2023-02-02T11:24:49.745Z,2.30
2023-02-02T11:27:42.509Z,2.27
2023-02-02T11:30:26.641Z,2.40
2023-02-02T11:32:53.600Z,1.97
2023-02-02T11:35:23.273Z,2.50
2023-02-02T11:38:14.061Z,2.30
2023-02-02T11:40:44.301Z,1.97
2023-02-02T11:43:29.213Z,2.30
2023-02-02T11:46:02.728Z,2.60
2023-02-02T11:48:36.092Z,2.43
2023-02-02T11:51:04.597Z,2.00
2023-02-02T11:53:36.997Z,2.47
2023-02-02T11:56:19.043Z,2.30
2023-02-02T11:58:55.424Z,2.20
2023-02-02T12:01:31.364Z,2.00
2023-02-02T12:04:01.635Z,2.27
2023-02-02T12:06:37.250Z,2.07
2023-02-02T12:09:17.132Z,2.13
2023-02-02T12:12:05.552Z,2.43
2023-02-02T12:14:35.127Z,2.20
2023-02-02T12:17:26.850Z,2.37
2023-02-02T12:20:03.307Z,2.13
2023-02-02T12:22:43.770Z,2.13
2023-02-02T12:25:48.190Z,1.97
2023-02-02T12:28:27.393Z,2.30
2023-02-02T12:30:54.001Z,2.00
2023-02-02T12:33:49.908Z,1.60
2023-02-02T12:36:38.386Z,1.80
2023-02-02T12:39:51.389Z,2.10
2023-02-02T12:42:40.014Z,2.03
2023-02-02T12:45:28.120Z,2.63
2023-02-02T12:48:46.077Z,1.53
2023-02-02T12:51:23.384Z,1.60
2023-02-02T12:54:33.892Z,1.87
2023-02-02T12:57:10.516Z,1.60
2023-02-02T12:59:58.948Z,1.43
2023-02-02T13:02:54.349Z,2.23
2023-02-02T13:05:32.963Z,1.90
2023-02-02T13:08:07.169Z,1.83
2023-02-02T13:10:41.727Z,2.67
2023-02-02T13:13:22.859Z,2.07
2023-02-02T13:15:55.056Z,1.80
2023-02-02T13:18:31.394Z,2.13
2023-02-02T13:21:05.816Z,2.33
2023-02-02T13:23:53.762Z,2.03
2023-02-02T13:26:26.931Z,1.80
2023-02-02T13:29:05.983Z,2.00
2023-02-02T13:31:36.682Z,2.40
2023-02-02T13:34:17.485Z,1.90
2023-02-02T13:36:50.453Z,1.77
2023-02-02T13:39:21.617Z,1.60
2023-02-02T13:41:49.813Z,1.97
2023-02-02T13:44:32.766Z,1.90
2023-02-02T13:47:10.232Z,2.17
2023-02-02T13:49:55.752Z,2.43
2023-02-02T13:52:49.130Z,2.10
2023-02-02T13:55:46.130Z,1.77
2023-02-02T13:58:34.040Z,5.27
2023-02-02T14:01:10.194Z,1.87
2023-02-02T14:03:43.656Z,1.73
2023-02-02T14:06:16.953Z,8.33
2023-02-02T14:09:05.726Z,4.13
2023-02-02T14:11:39.009Z,4.30
2023-02-02T14:14:35.244Z,2.40
2023-02-02T14:17:06.757Z,2.80
2023-02-02T14:19:33.342Z,2.43
2023-02-02T14:22:09.237Z,2.40
2023-02-02T14:24:35.802Z,2.10
2023-02-02T14:27:22.562Z,2.00
2023-02-02T14:29:49.172Z,1.77
2023-02-02T14:32:25.258Z,2.73
2023-02-02T14:34:56.314Z,1.73
2023-02-02T14:37:23.012Z,1.80
2023-02-02T14:40:11.004Z,1.57
2023-02-02T14:43:18.379Z,2.47
2023-02-02T14:46:10.822Z,1.77
2023-02-02T14:48:41.647Z,1.60
2023-02-02T14:51:46.761Z,2.80
2023-02-02T14:54:21.986Z,2.40
2023-02-02T14:56:51.673Z,2.10
2023-02-02T14:59:26.589Z,1.30
2023-02-02T15:02:10.365Z,4.27
2023-02-02T15:04:37.396Z,6.80
2023-02-02T15:07:22.549Z,3.43
2023-02-02T15:09:56.729Z,2.40
2023-02-02T15:12:44.912Z,2.70
2023-02-02T15:15:29.986Z,2.83
2023-02-02T15:18:17.735Z,3.27
2023-02-02T15:20:49.797Z,2.70
2023-02-02T15:23:22.589Z,2.30
2023-02-02T15:26:17.529Z,1.90
2023-02-02T15:28:52.015Z,2.00
2023-02-02T15:31:24.163Z,1.80
2023-02-02T15:33:55.526Z,1.60
2023-02-02T15:36:28.838Z,2.00
2023-02-02T15:39:01.563Z,1.93
2023-02-02T15:41:38.026Z,1.40
2023-02-02T15:44:28.497Z,1.50
2023-02-02T15:46:57.960Z,1.67
2023-02-02T15:49:34.775Z,1.97
2023-02-02T15:52:13.227Z,1.63
2023-02-02T15:54:50.751Z,1.87
2023-02-02T15:57:31.418Z,1.50
2023-02-02T15:59:59.520Z,1.40
2023-02-02T16:02:42.990Z,1.70
2023-02-02T16:05:48.222Z,1.80
2023-02-02T16:08:19.784Z,1.70
2023-02-02T16:10:49.389Z,1.77
2023-02-02T16:13:27.927Z,2.03
2023-02-02T16:16:00.118Z,1.73
2023-02-02T16:18:26.939Z,2.33
2023-02-02T16:20:55.254Z,1.57
2023-02-02T16:23:29.045Z,1.90
2023-02-02T16:25:58.932Z,1.70
2023-02-02T16:28:26.895Z,1.50
2023-02-02T16:30:54.211Z,1.73
2023-02-02T16:33:38.872Z,1.87
2023-02-02T16:36:26.379Z,1.90
2023-02-02T16:38:54.817Z,1.97
2023-02-02T16:41:27.794Z,1.77
2023-02-02T16:43:54.776Z,1.70
2023-02-02T16:46:45.663Z,2.00
2023-02-02T16:49:19.236Z,2.37
2023-02-02T16:51:47.805Z,2.17
2023-02-02T16:54:20.383Z,2.70
2023-02-02T16:56:59.189Z,2.63
2023-02-02T16:59:33.577Z,2.60
2023-02-02T17:02:40.849Z,2.77
2023-02-02T17:05:19.618Z,2.40
2023-02-02T17:07:50.463Z,3.13
2023-02-02T17:10:17.055Z,3.60
2023-02-02T17:12:45.181Z,3.63
2023-02-02T17:15:17.940Z,3.40
2023-02-02T17:17:47.803Z,3.40
2023-02-02T17:20:18.749Z,3.00
2023-02-02T17:22:48.471Z,2.80
2023-02-02T17:25:18.168Z,2.70
2023-02-02T17:27:45.828Z,2.20
2023-02-02T17:30:19.063Z,2.80
2023-02-02T17:32:45.848Z,2.30
2023-02-02T17:35:24.570Z,2.50
2023-02-02T17:37:54.506Z,3.23
2023-02-02T17:40:23.198Z,2.60
2023-02-02T17:42:51.742Z,2.60
2023-02-02T17:45:23.086Z,2.73
2023-02-02T17:47:53.067Z,2.90
2023-02-02T17:50:21.540Z,2.97
2023-02-02T17:52:49.825Z,2.60
2023-02-02T17:55:23.068Z,3.10
2023-02-02T17:57:51.476Z,3.27
2023-02-02T18:00:20.491Z,3.20
2023-02-02T18:02:48.915Z,3.63
2023-02-02T18:05:16.688Z,3.03
2023-02-02T18:07:44.103Z,3.13
2023-02-02T18:10:15.674Z,9.23
2023-02-02T18:12:42.831Z,9.20
2023-02-02T18:15:13.245Z,4.23
2023-02-02T18:17:39.973Z,2.87
2023-02-02T18:20:07.828Z,3.10
2023-02-02T18:22:34.669Z,3.00
2023-02-02T18:25:01.488Z,3.53
2023-02-02T18:27:31.258Z,3.63
2023-02-02T18:29:57.956Z,3.40
2023-02-02T18:32:24.990Z,3.30
2023-02-02T18:34:55.455Z,3.43
2023-02-02T18:37:24.208Z,3.57
2023-02-02T18:39:51.857Z,2.63
2023-02-02T18:42:18.545Z,3.40
2023-02-02T18:44:45.189Z,2.90
2023-02-02T18:47:11.825Z,3.33
2023-02-02T18:49:38.523Z,3.30
2023-02-02T18:52:05.384Z,2.90
2023-02-02T18:54:33.922Z,2.87
2023-02-02T18:57:02.918Z,3.03
2023-02-02T18:59:29.710Z,2.97
2023-02-02T19:01:56.459Z,3.00
2023-02-02T19:04:23.241Z,2.73
2023-02-02T19:07:08.502Z,4.30
2023-02-02T19:09:35.240Z,3.40
2023-02-02T19:12:02.629Z,3.27
2023-02-02T19:14:36.810Z,3.90
2023-02-02T19:17:24.426Z,3.20
2023-02-02T19:19:51.155Z,3.97
2023-02-02T19:22:22.575Z,4.07
2023-02-02T19:24:50.394Z,3.80
2023-02-02T19:27:26.560Z,3.40
2023-02-02T19:29:59.827Z,2.60
2023-02-02T19:32:28.608Z,3.23
2023-02-02T19:34:58.595Z,2.93
2023-02-02T19:37:27.849Z,2.73
2023-02-02T19:40:01.129Z,3.70
2023-02-02T19:42:29.048Z,3.57
2023-02-02T19:44:56.560Z,10.47
2023-02-02T19:47:30.416Z,8.97
2023-02-02T19:49:57.487Z,3.27
2023-02-02T19:52:25.809Z,3.30
2023-02-02T19:54:53.243Z,3.53
2023-02-02T19:57:40.849Z,2.93
2023-02-02T20:00:37.015Z,3.50
2023-02-02T20:03:12.624Z,3.70
2023-02-02T20:05:45.310Z,3.60
2023-02-02T20:08:24.755Z,3.13
2023-02-02T20:10:54.006Z,3.00
2023-02-02T20:13:34.005Z,2.77
2023-02-02T20:16:04.310Z,3.20
2023-02-02T20:18:44.548Z,3.30
2023-02-02T20:21:36.323Z,3.33
2023-02-02T20:24:04.129Z,3.10
2023-02-02T20:26:37.526Z,3.73
2023-02-02T20:29:20.268Z,2.83
2023-02-02T20:31:47.607Z,2.90
2023-02-02T20:34:26.871Z,2.47
2023-02-02T20:36:58.895Z,2.93
2023-02-02T20:39:28.654Z,3.20
2023-02-02T20:41:57.328Z,2.60
2023-02-02T20:44:25.363Z,3.13
2023-02-02T20:46:52.655Z,2.90
2023-02-02T20:49:22.349Z,2.80
2023-02-02T20:51:49.370Z,2.93
2023-02-02T20:54:16.072Z,2.50
2023-02-02T20:56:42.736Z,3.00
2023-02-02T20:59:09.495Z,2.70
2023-02-02T21:01:36.103Z,3.03
2023-02-02T21:04:05.409Z,2.80
2023-02-02T21:06:32.151Z,2.97
2023-02-02T21:08:58.832Z,2.70
2023-02-02T21:11:25.523Z,2.97
2023-02-02T21:13:55.142Z,3.47
2023-02-02T21:16:22.505Z,2.40
2023-02-02T21:18:49.253Z,2.43
2023-02-02T21:21:17.131Z,2.67
2023-02-02T21:23:47.082Z,2.93
2023-02-02T21:26:22.324Z,2.70
2023-02-02T21:28:49.757Z,2.23
2023-02-02T21:31:18.146Z,2.20
2023-02-02T21:33:47.103Z,2.07
2023-02-02T21:36:31.852Z,1.60
2023-02-02T21:39:21.973Z,2.23
2023-02-02T21:41:50.218Z,2.87
2023-02-02T21:44:22.358Z,2.13
2023-02-02T21:46:51.755Z,2.43
2023-02-02T21:49:18.789Z,2.20
2023-02-02T21:51:45.551Z,2.80
2023-02-02T21:54:19.288Z,2.43
2023-02-02T21:56:46.492Z,3.33
2023-02-02T21:59:28.455Z,2.97
2023-02-02T22:01:55.197Z,3.73
2023-02-02T22:04:28.540Z,4.13
2023-02-02T22:06:59.278Z,3.70
2023-02-02T22:09:38.546Z,4.60
2023-02-02T22:12:13.897Z,4.23
2023-02-02T22:14:42.624Z,5.03
2023-02-02T22:17:29.240Z,5.13
2023-02-02T22:20:18.390Z,4.73
2023-02-02T22:22:47.632Z,5.80
2023-02-02T22:25:17.214Z,5.23
2023-02-02T22:27:50.482Z,4.33
2023-02-02T22:30:26.867Z,5.43
2023-02-02T22:32:54.874Z,5.20
2023-02-02T22:35:21.971Z,5.67
2023-02-02T22:37:48.694Z,4.93
2023-02-02T22:40:16.439Z,6.13
2023-02-02T22:42:43.772Z,5.47
2023-02-02T22:45:10.926Z,6.03
2023-02-02T22:47:37.661Z,6.50
2023-02-02T22:50:04.679Z,6.77
2023-02-02T22:52:31.380Z,7.07
2023-02-02T22:54:58.203Z,5.70
2023-02-02T22:57:24.920Z,6.80
2023-02-02T22:59:51.570Z,5.97
2023-02-02T23:02:18.207Z,5.67
2023-02-02T23:04:44.833Z,5.87
2023-02-02T23:07:11.505Z,6.50
2023-02-02T23:09:38.165Z,6.20
2023-02-02T23:12:05.101Z,5.30
2023-02-02T23:14:31.790Z,6.20
2023-02-02T23:16:58.511Z,5.43
2023-02-02T23:19:25.440Z,5.90
2023-02-02T23:21:52.521Z,5.23
2023-02-02T23:24:19.187Z,5.43
2023-02-02T23:26:45.812Z,5.47
2023-02-02T23:29:12.520Z,6.17
2023-02-02T23:31:39.242Z,5.73
2023-02-02T23:34:05.925Z,6.07
2023-02-02T23:36:32.597Z,5.20
2023-02-02T23:38:59.298Z,5.90
2023-02-02T23:41:25.928Z,5.53
2023-02-02T23:43:53.050Z,5.87
2023-02-02T23:46:21.477Z,5.50
2023-02-02T23:48:48.316Z,5.60
2023-02-02T23:51:15.253Z,4.63
2023-02-02T23:53:43.010Z,5.50
2023-02-02T23:56:09.969Z,4.63
2023-02-02T23:58:36.787Z,4.37
